sensor_id;sensor_type;location;lat;lon;timestamp;P1;durP1;ratioP1;P2;durP2;ratioP2
48034;SDS011;33812;46.480;6.834;2023-08-06T00:01:42;1.90;;;0.70;;
48034;SDS011;33812;46.480;6.834;2023-08-06T00:05:44;1.15;;;0.85;;
48034;SDS011;33812;46.480;6.834;2023-08-06T00:09:47;3.25;;;1.05;;
48034;SDS011;33812;46.480;6.834;2023-08-06T00:13:49;4.18;;;0.90;;
48034;SDS011;33812;46.480;6.834;2023-08-06T00:17:51;1.70;;;0.75;;
48034;SDS011;33812;46.480;6.834;2023-08-06T00:21:53;3.45;;;1.00;;
48034;SDS011;33812;46.480;6.834;2023-08-06T00:25:56;1.08;;;0.88;;
48034;SDS011;33812;46.480;6.834;2023-08-06T00:29:58;0.93;;;0.63;;
48034;SDS011;33812;46.480;6.834;2023-08-06T00:34:00;1.33;;;1.05;;
48034;SDS011;33812;46.480;6.834;2023-08-06T00:38:02;3.03;;;0.85;;
48034;SDS011;33812;46.480;6.834;2023-08-06T00:42:09;1.25;;;0.88;;
48034;SDS011;33812;46.480;6.834;2023-08-06T00:50:33;1.27;;;0.82;;
48034;SDS011;33812;46.480;6.834;2023-08-06T00:54:38;1.55;;;0.82;;
48034;SDS011;33812;46.480;6.834;2023-08-06T00:58:41;4.03;;;1.05;;
48034;SDS011;33812;46.480;6.834;2023-08-06T01:02:45;1.17;;;0.80;;
48034;SDS011;33812;46.480;6.834;2023-08-06T01:11:11;1.85;;;1.00;;
48034;SDS011;33812;46.480;6.834;2023-08-06T01:15:28;2.40;;;0.80;;
48034;SDS011;33812;46.480;6.834;2023-08-06T01:19:33;3.33;;;0.95;;
48034;SDS011;33812;46.480;6.834;2023-08-06T01:23:36;1.80;;;0.80;;
48034;SDS011;33812;46.480;6.834;2023-08-06T01:27:38;1.48;;;0.98;;
48034;SDS011;33812;46.480;6.834;2023-08-06T01:31:48;1.33;;;1.02;;
48034;SDS011;33812;46.480;6.834;2023-08-06T01:40:01;1.80;;;0.80;;
48034;SDS011;33812;46.480;6.834;2023-08-06T01:44:07;1.30;;;1.20;;
48034;SDS011;33812;46.480;6.834;2023-08-06T01:48:09;1.75;;;0.63;;
48034;SDS011;33812;46.480;6.834;2023-08-06T01:52:11;3.47;;;0.70;;
48034;SDS011;33812;46.480;6.834;2023-08-06T01:56:14;3.00;;;0.82;;
48034;SDS011;33812;46.480;6.834;2023-08-06T02:00:16;0.88;;;0.70;;
48034;SDS011;33812;46.480;6.834;2023-08-06T02:04:17;1.77;;;0.80;;
48034;SDS011;33812;46.480;6.834;2023-08-06T02:08:20;1.80;;;0.80;;
48034;SDS011;33812;46.480;6.834;2023-08-06T02:12:25;1.50;;;0.60;;
48034;SDS011;33812;46.480;6.834;2023-08-06T02:16:28;1.17;;;0.52;;
48034;SDS011;33812;46.480;6.834;2023-08-06T02:20:30;1.58;;;0.70;;
48034;SDS011;33812;46.480;6.834;2023-08-06T02:24:32;0.98;;;0.70;;
48034;SDS011;33812;46.480;6.834;2023-08-06T02:28:35;0.93;;;0.70;;
48034;SDS011;33812;46.480;6.834;2023-08-06T02:32:37;0.63;;;0.52;;
48034;SDS011;33812;46.480;6.834;2023-08-06T02:36:40;0.63;;;0.63;;
48034;SDS011;33812;46.480;6.834;2023-08-06T02:40:44;0.63;;;0.55;;
48034;SDS011;33812;46.480;6.834;2023-08-06T02:44:48;0.63;;;0.50;;
48034;SDS011;33812;46.480;6.834;2023-08-06T02:48:50;0.50;;;0.50;;
48034;SDS011;33812;46.480;6.834;2023-08-06T02:52:54;1.35;;;0.60;;
48034;SDS011;33812;46.480;6.834;2023-08-06T02:56:56;1.02;;;0.80;;
48034;SDS011;33812;46.480;6.834;2023-08-06T03:01:03;1.30;;;0.60;;
48034;SDS011;33812;46.480;6.834;2023-08-06T03:05:07;1.10;;;0.60;;
48034;SDS011;33812;46.480;6.834;2023-08-06T03:09:09;0.70;;;0.70;;
48034;SDS011;33812;46.480;6.834;2023-08-06T03:13:12;0.75;;;0.60;;
48034;SDS011;33812;46.480;6.834;2023-08-06T03:17:15;1.08;;;0.60;;
48034;SDS011;33812;46.480;6.834;2023-08-06T03:21:17;0.50;;;0.50;;
48034;SDS011;33812;46.480;6.834;2023-08-06T03:25:18;0.70;;;0.50;;
48034;SDS011;33812;46.480;6.834;2023-08-06T03:29:20;0.95;;;0.60;;
48034;SDS011;33812;46.480;6.834;2023-08-06T03:33:24;0.95;;;0.43;;
48034;SDS011;33812;46.480;6.834;2023-08-06T03:37:26;0.40;;;0.40;;
48034;SDS011;33812;46.480;6.834;2023-08-06T03:41:27;1.08;;;0.63;;
48034;SDS011;33812;46.480;6.834;2023-08-06T03:45:30;1.85;;;0.52;;
48034;SDS011;33812;46.480;6.834;2023-08-06T03:49:33;1.80;;;0.57;;
48034;SDS011;33812;46.480;6.834;2023-08-06T03:53:37;1.65;;;0.95;;
48034;SDS011;33812;46.480;6.834;2023-08-06T03:57:39;1.40;;;0.70;;
48034;SDS011;33812;46.480;6.834;2023-08-06T04:01:41;1.80;;;0.75;;
48034;SDS011;33812;46.480;6.834;2023-08-06T04:05:44;1.73;;;0.88;;
48034;SDS011;33812;46.480;6.834;2023-08-06T04:09:57;2.08;;;0.85;;
48034;SDS011;33812;46.480;6.834;2023-08-06T04:14:00;3.13;;;0.70;;
48034;SDS011;33812;46.480;6.834;2023-08-06T04:18:01;1.42;;;0.50;;
48034;SDS011;33812;46.480;6.834;2023-08-06T04:22:06;4.93;;;1.13;;
48034;SDS011;33812;46.480;6.834;2023-08-06T04:26:08;1.88;;;1.00;;
48034;SDS011;33812;46.480;6.834;2023-08-06T04:30:10;2.75;;;1.00;;
48034;SDS011;33812;46.480;6.834;2023-08-06T04:34:12;1.05;;;0.63;;
48034;SDS011;33812;46.480;6.834;2023-08-06T04:38:15;3.90;;;1.08;;
48034;SDS011;33812;46.480;6.834;2023-08-06T04:42:17;1.88;;;0.70;;
48034;SDS011;33812;46.480;6.834;2023-08-06T04:46:19;2.47;;;0.75;;
48034;SDS011;33812;46.480;6.834;2023-08-06T04:50:21;3.88;;;0.88;;
48034;SDS011;33812;46.480;6.834;2023-08-06T04:54:24;1.33;;;0.73;;
48034;SDS011;33812;46.480;6.834;2023-08-06T04:58:26;2.30;;;1.00;;
48034;SDS011;33812;46.480;6.834;2023-08-06T05:02:28;2.38;;;0.60;;
48034;SDS011;33812;46.480;6.834;2023-08-06T05:06:30;4.53;;;0.88;;
48034;SDS011;33812;46.480;6.834;2023-08-06T05:10:33;1.60;;;0.80;;
48034;SDS011;33812;46.480;6.834;2023-08-06T05:14:35;2.47;;;1.13;;
48034;SDS011;33812;46.480;6.834;2023-08-06T05:18:37;1.65;;;0.70;;
48034;SDS011;33812;46.480;6.834;2023-08-06T05:22:41;2.08;;;0.80;;
48034;SDS011;33812;46.480;6.834;2023-08-06T05:26:44;2.85;;;0.93;;
48034;SDS011;33812;46.480;6.834;2023-08-06T05:34:50;3.03;;;0.95;;
48034;SDS011;33812;46.480;6.834;2023-08-06T05:38:52;2.38;;;0.90;;
48034;SDS011;33812;46.480;6.834;2023-08-06T05:42:55;1.50;;;0.80;;
48034;SDS011;33812;46.480;6.834;2023-08-06T05:46:57;4.85;;;1.08;;
48034;SDS011;33812;46.480;6.834;2023-08-06T05:50:59;3.83;;;0.98;;
48034;SDS011;33812;46.480;6.834;2023-08-06T05:55:01;5.43;;;1.10;;
48034;SDS011;33812;46.480;6.834;2023-08-06T05:59:04;2.40;;;0.80;;
48034;SDS011;33812;46.480;6.834;2023-08-06T06:03:06;4.00;;;0.80;;
48034;SDS011;33812;46.480;6.834;2023-08-06T06:07:08;8.45;;;1.40;;
48034;SDS011;33812;46.480;6.834;2023-08-06T06:11:09;90.32;;;17.23;;
48034;SDS011;33812;46.480;6.834;2023-08-06T06:15:13;63.40;;;11.25;;
48034;SDS011;33812;46.480;6.834;2023-08-06T06:19:14;104.30;;;19.52;;
48034;SDS011;33812;46.480;6.834;2023-08-06T06:23:16;56.65;;;9.65;;
48034;SDS011;33812;46.480;6.834;2023-08-06T06:27:19;32.20;;;7.35;;
48034;SDS011;33812;46.480;6.834;2023-08-06T06:31:22;42.80;;;10.68;;
48034;SDS011;33812;46.480;6.834;2023-08-06T06:35:24;39.47;;;8.35;;
48034;SDS011;33812;46.480;6.834;2023-08-06T06:39:27;29.13;;;7.38;;
48034;SDS011;33812;46.480;6.834;2023-08-06T06:43:28;24.88;;;5.38;;
48034;SDS011;33812;46.480;6.834;2023-08-06T06:47:32;28.48;;;6.75;;
48034;SDS011;33812;46.480;6.834;2023-08-06T06:51:33;15.82;;;3.38;;
48034;SDS011;33812;46.480;6.834;2023-08-06T06:55:35;13.23;;;2.42;;
48034;SDS011;33812;46.480;6.834;2023-08-06T06:59:37;33.22;;;1.95;;
48034;SDS011;33812;46.480;6.834;2023-08-06T07:03:41;15.38;;;1.75;;
48034;SDS011;33812;46.480;6.834;2023-08-06T07:07:42;13.95;;;2.70;;
48034;SDS011;33812;46.480;6.834;2023-08-06T07:11:44;9.00;;;1.30;;
48034;SDS011;33812;46.480;6.834;2023-08-06T07:15:46;5.97;;;1.70;;
48034;SDS011;33812;46.480;6.834;2023-08-06T07:19:49;6.65;;;1.30;;
48034;SDS011;33812;46.480;6.834;2023-08-06T07:23:52;5.22;;;1.30;;
48034;SDS011;33812;46.480;6.834;2023-08-06T07:27:54;10.18;;;1.20;;
48034;SDS011;33812;46.480;6.834;2023-08-06T07:31:56;11.48;;;1.27;;
48034;SDS011;33812;46.480;6.834;2023-08-06T07:36:06;11.95;;;1.08;;
48034;SDS011;33812;46.480;6.834;2023-08-06T07:40:09;6.47;;;1.25;;
48034;SDS011;33812;46.480;6.834;2023-08-06T07:44:12;6.45;;;1.20;;
48034;SDS011;33812;46.480;6.834;2023-08-06T07:48:13;5.40;;;0.90;;
48034;SDS011;33812;46.480;6.834;2023-08-06T07:52:17;10.50;;;1.13;;
48034;SDS011;33812;46.480;6.834;2023-08-06T07:56:18;8.50;;;0.70;;
48034;SDS011;33812;46.480;6.834;2023-08-06T08:00:20;15.52;;;1.05;;
48034;SDS011;33812;46.480;6.834;2023-08-06T08:04:23;7.93;;;0.60;;
48034;SDS011;33812;46.480;6.834;2023-08-06T08:08:26;17.48;;;1.52;;
48034;SDS011;33812;46.480;6.834;2023-08-06T08:12:28;11.07;;;0.63;;
48034;SDS011;33812;46.480;6.834;2023-08-06T08:16:30;7.07;;;1.13;;
48034;SDS011;33812;46.480;6.834;2023-08-06T08:24:39;7.45;;;0.88;;
48034;SDS011;33812;46.480;6.834;2023-08-06T08:28:40;7.63;;;0.90;;
48034;SDS011;33812;46.480;6.834;2023-08-06T08:32:42;9.30;;;0.93;;
48034;SDS011;33812;46.480;6.834;2023-08-06T08:36:44;4.68;;;1.02;;
48034;SDS011;33812;46.480;6.834;2023-08-06T08:40:49;8.30;;;0.70;;
48034;SDS011;33812;46.480;6.834;2023-08-06T08:44:54;15.07;;;0.70;;
48034;SDS011;33812;46.480;6.834;2023-08-06T08:48:58;12.27;;;0.85;;
48034;SDS011;33812;46.480;6.834;2023-08-06T08:53:03;4.13;;;0.80;;
48034;SDS011;33812;46.480;6.834;2023-08-06T08:57:08;1.80;;;0.80;;
48034;SDS011;33812;46.480;6.834;2023-08-06T09:01:10;2.28;;;0.30;;
48034;SDS011;33812;46.480;6.834;2023-08-06T09:05:13;1.38;;;0.30;;
48034;SDS011;33812;46.480;6.834;2023-08-06T09:09:17;3.83;;;0.40;;
48034;SDS011;33812;46.480;6.834;2023-08-06T09:13:27;3.55;;;0.25;;
48034;SDS011;33812;46.480;6.834;2023-08-06T09:17:29;1.05;;;0.40;;
48034;SDS011;33812;46.480;6.834;2023-08-06T09:21:31;1.85;;;0.45;;
48034;SDS011;33812;46.480;6.834;2023-08-06T09:25:33;0.47;;;0.22;;
48034;SDS011;33812;46.480;6.834;2023-08-06T09:29:37;9.65;;;0.65;;
48034;SDS011;33812;46.480;6.834;2023-08-06T09:33:41;3.92;;;1.00;;
48034;SDS011;33812;46.480;6.834;2023-08-06T09:37:45;18.88;;;8.77;;
48034;SDS011;33812;46.480;6.834;2023-08-06T09:41:47;36.85;;;29.77;;
48034;SDS011;33812;46.480;6.834;2023-08-06T09:45:50;15.40;;;12.35;;
48034;SDS011;33812;46.480;6.834;2023-08-06T09:49:52;15.80;;;10.70;;
48034;SDS011;33812;46.480;6.834;2023-08-06T09:53:57;16.05;;;8.25;;
48034;SDS011;33812;46.480;6.834;2023-08-06T09:58:00;9.02;;;5.82;;
48034;SDS011;33812;46.480;6.834;2023-08-06T10:02:04;5.95;;;4.10;;
48034;SDS011;33812;46.480;6.834;2023-08-06T10:06:13;8.38;;;3.42;;
48034;SDS011;33812;46.480;6.834;2023-08-06T10:10:15;3.33;;;2.10;;
48034;SDS011;33812;46.480;6.834;2023-08-06T10:14:19;1.98;;;1.27;;
48034;SDS011;33812;46.480;6.834;2023-08-06T10:18:26;1.15;;;0.80;;
48034;SDS011;33812;46.480;6.834;2023-08-06T10:22:29;1.40;;;0.77;;
48034;SDS011;33812;46.480;6.834;2023-08-06T10:26:34;1.58;;;0.68;;
48034;SDS011;33812;46.480;6.834;2023-08-06T10:30:41;2.72;;;0.57;;
48034;SDS011;33812;46.480;6.834;2023-08-06T10:34:54;0.80;;;0.40;;
48034;SDS011;33812;46.480;6.834;2023-08-06T10:38:57;4.25;;;0.52;;
48034;SDS011;33812;46.480;6.834;2023-08-06T10:42:59;3.55;;;0.50;;
48034;SDS011;33812;46.480;6.834;2023-08-06T10:51:29;0.77;;;0.47;;
48034;SDS011;33812;46.480;6.834;2023-08-06T10:55:31;1.52;;;0.47;;
48034;SDS011;33812;46.480;6.834;2023-08-06T10:59:33;1.52;;;0.40;;
48034;SDS011;33812;46.480;6.834;2023-08-06T11:03:35;1.90;;;0.20;;
48034;SDS011;33812;46.480;6.834;2023-08-06T11:07:38;3.53;;;0.45;;
48034;SDS011;33812;46.480;6.834;2023-08-06T11:11:40;3.72;;;0.30;;
48034;SDS011;33812;46.480;6.834;2023-08-06T11:15:43;3.70;;;0.38;;
48034;SDS011;33812;46.480;6.834;2023-08-06T11:19:46;2.60;;;0.20;;
48034;SDS011;33812;46.480;6.834;2023-08-06T11:23:49;1.33;;;0.40;;
48034;SDS011;33812;46.480;6.834;2023-08-06T11:27:52;3.72;;;0.22;;
48034;SDS011;33812;46.480;6.834;2023-08-06T11:36:05;1.63;;;0.60;;
48034;SDS011;33812;46.480;6.834;2023-08-06T11:40:10;2.80;;;0.30;;
48034;SDS011;33812;46.480;6.834;2023-08-06T11:44:12;0.65;;;0.20;;
48034;SDS011;33812;46.480;6.834;2023-08-06T11:48:14;9.20;;;0.30;;
48034;SDS011;33812;46.480;6.834;2023-08-06T11:52:17;0.98;;;0.32;;
48034;SDS011;33812;46.480;6.834;2023-08-06T11:56:21;0.82;;;0.28;;
48034;SDS011;33812;46.480;6.834;2023-08-06T12:00:24;1.70;;;0.20;;
48034;SDS011;33812;46.480;6.834;2023-08-06T12:04:27;4.80;;;0.50;;
48034;SDS011;33812;46.480;6.834;2023-08-06T12:08:29;2.95;;;0.40;;
48034;SDS011;33812;46.480;6.834;2023-08-06T12:12:32;2.60;;;0.10;;
48034;SDS011;33812;46.480;6.834;2023-08-06T12:16:34;4.13;;;0.35;;
48034;SDS011;33812;46.480;6.834;2023-08-06T12:20:37;0.60;;;0.20;;
48034;SDS011;33812;46.480;6.834;2023-08-06T12:24:40;0.63;;;0.10;;
48034;SDS011;33812;46.480;6.834;2023-08-06T12:28:43;2.00;;;0.32;;
48034;SDS011;33812;46.480;6.834;2023-08-06T12:32:45;0.57;;;0.10;;
48034;SDS011;33812;46.480;6.834;2023-08-06T12:36:47;1.50;;;0.25;;
48034;SDS011;33812;46.480;6.834;2023-08-06T12:40:49;4.03;;;0.30;;
48034;SDS011;33812;46.480;6.834;2023-08-06T12:44:52;5.18;;;0.30;;
48034;SDS011;33812;46.480;6.834;2023-08-06T12:48:54;3.70;;;0.40;;
48034;SDS011;33812;46.480;6.834;2023-08-06T12:52:57;1.05;;;0.30;;
48034;SDS011;33812;46.480;6.834;2023-08-06T12:56:59;2.33;;;0.50;;
48034;SDS011;33812;46.480;6.834;2023-08-06T13:01:02;0.57;;;0.30;;
48034;SDS011;33812;46.480;6.834;2023-08-06T13:05:04;0.20;;;0.10;;
48034;SDS011;33812;46.480;6.834;2023-08-06T13:09:06;0.63;;;0.25;;
48034;SDS011;33812;46.480;6.834;2023-08-06T13:13:08;1.48;;;1.00;;
48034;SDS011;33812;46.480;6.834;2023-08-06T13:17:11;0.82;;;0.25;;
48034;SDS011;33812;46.480;6.834;2023-08-06T13:21:13;0.25;;;0.13;;
48034;SDS011;33812;46.480;6.834;2023-08-06T13:25:15;0.17;;;0.15;;
48034;SDS011;33812;46.480;6.834;2023-08-06T13:29:17;0.40;;;0.17;;
48034;SDS011;33812;46.480;6.834;2023-08-06T13:33:20;3.03;;;0.40;;
48034;SDS011;33812;46.480;6.834;2023-08-06T13:37:22;0.60;;;0.20;;
48034;SDS011;33812;46.480;6.834;2023-08-06T13:41:23;1.40;;;0.30;;
48034;SDS011;33812;46.480;6.834;2023-08-06T13:45:25;0.52;;;0.10;;
48034;SDS011;33812;46.480;6.834;2023-08-06T13:49:28;0.22;;;0.10;;
48034;SDS011;33812;46.480;6.834;2023-08-06T13:53:30;0.30;;;0.20;;
48034;SDS011;33812;46.480;6.834;2023-08-06T13:57:32;3.72;;;0.50;;
48034;SDS011;33812;46.480;6.834;2023-08-06T14:01:34;0.10;;;0.10;;
48034;SDS011;33812;46.480;6.834;2023-08-06T14:05:37;0.28;;;0.20;;
48034;SDS011;33812;46.480;6.834;2023-08-06T14:09:40;0.75;;;0.30;;
48034;SDS011;33812;46.480;6.834;2023-08-06T14:13:42;1.35;;;0.10;;
48034;SDS011;33812;46.480;6.834;2023-08-06T14:17:44;0.40;;;0.30;;
48034;SDS011;33812;46.480;6.834;2023-08-06T14:21:47;0.82;;;0.20;;
48034;SDS011;33812;46.480;6.834;2023-08-06T14:25:50;0.65;;;0.20;;
48034;SDS011;33812;46.480;6.834;2023-08-06T14:29:52;0.00;;;0.00;;
48034;SDS011;33812;46.480;6.834;2023-08-06T14:33:53;0.65;;;0.30;;
48034;SDS011;33812;46.480;6.834;2023-08-06T14:37:56;0.38;;;0.20;;
48034;SDS011;33812;46.480;6.834;2023-08-06T14:41:58;0.50;;;0.30;;
48034;SDS011;33812;46.480;6.834;2023-08-06T14:46:00;1.48;;;0.20;;
48034;SDS011;33812;46.480;6.834;2023-08-06T14:50:02;0.10;;;0.10;;
48034;SDS011;33812;46.480;6.834;2023-08-06T14:54:05;0.20;;;0.20;;
48034;SDS011;33812;46.480;6.834;2023-08-06T14:58:07;0.60;;;0.30;;
48034;SDS011;33812;46.480;6.834;2023-08-06T15:02:12;4.28;;;0.60;;
48034;SDS011;33812;46.480;6.834;2023-08-06T15:10:17;24.88;;;0.93;;
48034;SDS011;33812;46.480;6.834;2023-08-06T15:14:24;4.82;;;0.50;;
48034;SDS011;33812;46.480;6.834;2023-08-06T15:18:26;6.53;;;0.43;;
48034;SDS011;33812;46.480;6.834;2023-08-06T15:22:28;6.57;;;0.70;;
48034;SDS011;33812;46.480;6.834;2023-08-06T15:26:34;15.75;;;0.80;;
48034;SDS011;33812;46.480;6.834;2023-08-06T15:30:37;6.07;;;0.40;;
48034;SDS011;33812;46.480;6.834;2023-08-06T15:34:41;6.47;;;1.50;;
48034;SDS011;33812;46.480;6.834;2023-08-06T15:38:43;12.35;;;0.50;;
48034;SDS011;33812;46.480;6.834;2023-08-06T15:42:48;3.05;;;0.60;;
48034;SDS011;33812;46.480;6.834;2023-08-06T15:46:50;1.30;;;0.28;;
48034;SDS011;33812;46.480;6.834;2023-08-06T15:50:52;7.18;;;0.50;;
48034;SDS011;33812;46.480;6.834;2023-08-06T15:54:58;0.77;;;0.25;;
48034;SDS011;33812;46.480;6.834;2023-08-06T16:03:34;1.35;;;0.20;;
48034;SDS011;33812;46.480;6.834;2023-08-06T16:07:38;8.35;;;0.50;;
48034;SDS011;33812;46.480;6.834;2023-08-06T16:11:39;3.67;;;0.38;;
48034;SDS011;33812;46.480;6.834;2023-08-06T16:15:41;4.00;;;0.40;;
48034;SDS011;33812;46.480;6.834;2023-08-06T16:19:45;9.60;;;0.43;;
48034;SDS011;33812;46.480;6.834;2023-08-06T16:23:46;3.50;;;0.50;;
48034;SDS011;33812;46.480;6.834;2023-08-06T16:27:48;2.42;;;0.40;;
48034;SDS011;33812;46.480;6.834;2023-08-06T16:31:50;5.78;;;0.40;;
48034;SDS011;33812;46.480;6.834;2023-08-06T16:35:54;5.35;;;0.32;;
48034;SDS011;33812;46.480;6.834;2023-08-06T16:39:56;4.60;;;0.77;;
48034;SDS011;33812;46.480;6.834;2023-08-06T16:43:58;2.90;;;0.90;;
48034;SDS011;33812;46.480;6.834;2023-08-06T16:47:59;5.43;;;0.57;;
48034;SDS011;33812;46.480;6.834;2023-08-06T16:52:03;6.00;;;0.60;;
48034;SDS011;33812;46.480;6.834;2023-08-06T16:56:05;7.53;;;0.70;;
48034;SDS011;33812;46.480;6.834;2023-08-06T17:00:07;3.55;;;0.80;;
48034;SDS011;33812;46.480;6.834;2023-08-06T17:04:09;6.18;;;0.60;;
48034;SDS011;33812;46.480;6.834;2023-08-06T17:08:13;4.78;;;0.70;;
48034;SDS011;33812;46.480;6.834;2023-08-06T17:12:14;3.28;;;0.90;;
48034;SDS011;33812;46.480;6.834;2023-08-06T17:16:20;23.92;;;5.97;;
48034;SDS011;33812;46.480;6.834;2023-08-06T17:20:21;129.27;;;39.55;;
48034;SDS011;33812;46.480;6.834;2023-08-06T17:24:26;39.95;;;10.88;;
48034;SDS011;33812;46.480;6.834;2023-08-06T17:28:28;17.27;;;5.07;;
48034;SDS011;33812;46.480;6.834;2023-08-06T17:32:30;13.15;;;3.90;;
48034;SDS011;33812;46.480;6.834;2023-08-06T17:36:33;15.98;;;4.70;;
48034;SDS011;33812;46.480;6.834;2023-08-06T17:40:36;12.73;;;3.88;;
48034;SDS011;33812;46.480;6.834;2023-08-06T17:44:38;14.68;;;3.25;;
48034;SDS011;33812;46.480;6.834;2023-08-06T17:48:39;10.85;;;4.05;;
48034;SDS011;33812;46.480;6.834;2023-08-06T17:52:41;7.75;;;2.55;;
48034;SDS011;33812;46.480;6.834;2023-08-06T17:56:45;14.05;;;3.58;;
48034;SDS011;33812;46.480;6.834;2023-08-06T18:00:48;3.85;;;1.17;;
48034;SDS011;33812;46.480;6.834;2023-08-06T18:04:50;6.65;;;0.90;;
48034;SDS011;33812;46.480;6.834;2023-08-06T18:08:52;2.80;;;1.17;;
48034;SDS011;33812;46.480;6.834;2023-08-06T18:12:55;4.90;;;1.15;;
48034;SDS011;33812;46.480;6.834;2023-08-06T18:16:57;2.50;;;0.85;;
48034;SDS011;33812;46.480;6.834;2023-08-06T18:20:59;11.30;;;1.50;;
48034;SDS011;33812;46.480;6.834;2023-08-06T18:25:01;6.18;;;1.70;;
48034;SDS011;33812;46.480;6.834;2023-08-06T18:29:08;5.85;;;1.40;;
48034;SDS011;33812;46.480;6.834;2023-08-06T18:33:13;3.33;;;0.75;;
48034;SDS011;33812;46.480;6.834;2023-08-06T18:37:14;4.15;;;0.75;;
48034;SDS011;33812;46.480;6.834;2023-08-06T18:41:16;2.95;;;1.08;;
48034;SDS011;33812;46.480;6.834;2023-08-06T18:45:20;6.85;;;1.00;;
48034;SDS011;33812;46.480;6.834;2023-08-06T18:49:21;6.68;;;1.20;;
48034;SDS011;33812;46.480;6.834;2023-08-06T18:53:23;6.97;;;1.23;;
48034;SDS011;33812;46.480;6.834;2023-08-06T18:57:25;5.65;;;1.10;;
48034;SDS011;33812;46.480;6.834;2023-08-06T19:01:30;3.85;;;1.05;;
48034;SDS011;33812;46.480;6.834;2023-08-06T19:05:32;3.63;;;0.82;;
48034;SDS011;33812;46.480;6.834;2023-08-06T19:09:34;5.53;;;0.98;;
48034;SDS011;33812;46.480;6.834;2023-08-06T19:13:36;1.30;;;0.60;;
48034;SDS011;33812;46.480;6.834;2023-08-06T19:17:39;1.98;;;0.80;;
48034;SDS011;33812;46.480;6.834;2023-08-06T19:21:47;1.13;;;0.60;;
48034;SDS011;33812;46.480;6.834;2023-08-06T19:25:48;1.92;;;0.68;;
48034;SDS011;33812;46.480;6.834;2023-08-06T19:29:50;16.52;;;0.90;;
48034;SDS011;33812;46.480;6.834;2023-08-06T19:33:54;2.72;;;0.70;;
48034;SDS011;33812;46.480;6.834;2023-08-06T19:37:56;2.45;;;0.52;;
48034;SDS011;33812;46.480;6.834;2023-08-06T19:46:21;2.08;;;0.50;;
48034;SDS011;33812;46.480;6.834;2023-08-06T19:50:29;1.30;;;0.47;;
48034;SDS011;33812;46.480;6.834;2023-08-06T19:54:34;1.13;;;0.60;;
48034;SDS011;33812;46.480;6.834;2023-08-06T19:58:36;4.90;;;0.65;;
48034;SDS011;33812;46.480;6.834;2023-08-06T20:02:38;1.17;;;0.55;;
48034;SDS011;33812;46.480;6.834;2023-08-06T20:06:41;2.72;;;0.80;;
48034;SDS011;33812;46.480;6.834;2023-08-06T20:10:43;5.65;;;0.98;;
48034;SDS011;33812;46.480;6.834;2023-08-06T20:14:47;2.85;;;1.10;;
48034;SDS011;33812;46.480;6.834;2023-08-06T20:18:50;1.88;;;0.73;;
48034;SDS011;33812;46.480;6.834;2023-08-06T20:22:53;2.58;;;0.95;;
48034;SDS011;33812;46.480;6.834;2023-08-06T20:26:55;13.32;;;0.98;;
48034;SDS011;33812;46.480;6.834;2023-08-06T20:30:57;1.40;;;0.70;;
48034;SDS011;33812;46.480;6.834;2023-08-06T20:34:59;4.97;;;0.90;;
48034;SDS011;33812;46.480;6.834;2023-08-06T20:39:02;2.38;;;0.70;;
48034;SDS011;33812;46.480;6.834;2023-08-06T20:43:04;8.18;;;0.90;;
48034;SDS011;33812;46.480;6.834;2023-08-06T20:47:07;1.10;;;0.60;;
48034;SDS011;33812;46.480;6.834;2023-08-06T20:51:09;6.90;;;1.20;;
48034;SDS011;33812;46.480;6.834;2023-08-06T20:55:12;1.63;;;1.10;;
48034;SDS011;33812;46.480;6.834;2023-08-06T20:59:20;4.50;;;1.15;;
48034;SDS011;33812;46.480;6.834;2023-08-06T21:03:23;1.90;;;1.02;;
48034;SDS011;33812;46.480;6.834;2023-08-06T21:07:26;2.10;;;0.73;;
48034;SDS011;33812;46.480;6.834;2023-08-06T21:11:35;2.42;;;0.60;;
48034;SDS011;33812;46.480;6.834;2023-08-06T21:15:36;3.50;;;1.15;;
48034;SDS011;33812;46.480;6.834;2023-08-06T21:19:38;7.07;;;1.10;;
48034;SDS011;33812;46.480;6.834;2023-08-06T21:23:41;13.10;;;0.75;;
48034;SDS011;33812;46.480;6.834;2023-08-06T21:27:44;3.97;;;1.20;;
48034;SDS011;33812;46.480;6.834;2023-08-06T21:31:48;7.38;;;1.00;;
48034;SDS011;33812;46.480;6.834;2023-08-06T21:35:51;2.90;;;0.70;;
48034;SDS011;33812;46.480;6.834;2023-08-06T21:44:15;1.90;;;0.90;;
48034;SDS011;33812;46.480;6.834;2023-08-06T21:52:25;1.42;;;0.82;;
48034;SDS011;33812;46.480;6.834;2023-08-06T21:56:32;4.65;;;0.98;;
48034;SDS011;33812;46.480;6.834;2023-08-06T22:00:36;2.13;;;0.80;;
48034;SDS011;33812;46.480;6.834;2023-08-06T22:04:38;3.05;;;0.80;;
48034;SDS011;33812;46.480;6.834;2023-08-06T22:08:40;3.65;;;0.90;;
48034;SDS011;33812;46.480;6.834;2023-08-06T22:12:42;1.45;;;0.60;;
48034;SDS011;33812;46.480;6.834;2023-08-06T22:16:46;1.00;;;0.63;;
48034;SDS011;33812;46.480;6.834;2023-08-06T22:20:48;1.40;;;0.73;;
48034;SDS011;33812;46.480;6.834;2023-08-06T22:24:50;2.95;;;0.70;;
48034;SDS011;33812;46.480;6.834;2023-08-06T22:28:52;1.58;;;0.70;;
48034;SDS011;33812;46.480;6.834;2023-08-06T22:32:55;2.50;;;1.05;;
48034;SDS011;33812;46.480;6.834;2023-08-06T22:36:57;0.98;;;0.60;;
48034;SDS011;33812;46.480;6.834;2023-08-06T22:40:59;1.35;;;0.80;;
48034;SDS011;33812;46.480;6.834;2023-08-06T22:45:01;9.43;;;2.22;;
48034;SDS011;33812;46.480;6.834;2023-08-06T22:49:04;2.90;;;0.95;;
48034;SDS011;33812;46.480;6.834;2023-08-06T22:53:06;1.27;;;0.88;;
48034;SDS011;33812;46.480;6.834;2023-08-06T22:57:08;1.35;;;0.60;;
48034;SDS011;33812;46.480;6.834;2023-08-06T23:01:10;0.90;;;0.70;;
48034;SDS011;33812;46.480;6.834;2023-08-06T23:05:13;2.97;;;0.90;;
48034;SDS011;33812;46.480;6.834;2023-08-06T23:09:15;0.93;;;0.50;;
48034;SDS011;33812;46.480;6.834;2023-08-06T23:13:16;2.05;;;0.75;;
48034;SDS011;33812;46.480;6.834;2023-08-06T23:17:20;1.35;;;0.65;;
48034;SDS011;33812;46.480;6.834;2023-08-06T23:21:23;1.23;;;0.80;;
48034;SDS011;33812;46.480;6.834;2023-08-06T23:25:25;1.30;;;0.70;;
48034;SDS011;33812;46.480;6.834;2023-08-06T23:29:27;2.05;;;0.60;;
48034;SDS011;33812;46.480;6.834;2023-08-06T23:33:29;1.77;;;0.65;;
48034;SDS011;33812;46.480;6.834;2023-08-06T23:37:33;1.33;;;0.70;;
48034;SDS011;33812;46.480;6.834;2023-08-06T23:41:34;1.40;;;0.63;;
48034;SDS011;33812;46.480;6.834;2023-08-06T23:45:36;1.63;;;0.60;;
48034;SDS011;33812;46.480;6.834;2023-08-06T23:49:38;1.65;;;0.60;;
48034;SDS011;33812;46.480;6.834;2023-08-06T23:53:41;1.48;;;0.70;;
48034;SDS011;33812;46.480;6.834;2023-08-06T23:57:43;0.88;;;0.40;;
